createdAt,value
2022-09-20T00:01:36.088Z,15.20
2022-09-20T00:04:06.949Z,15.50
2022-09-20T00:06:35.263Z,15.30
2022-09-20T00:09:04.554Z,13.50
2022-09-20T00:11:33.979Z,14.90
2022-09-20T00:14:03.722Z,15.60
2022-09-20T00:16:34.760Z,15.20
2022-09-20T00:19:05.119Z,14.40
2022-09-20T00:21:35.062Z,15.70
2022-09-20T00:24:04.044Z,13.60
2022-09-20T00:26:31.978Z,12.90
2022-09-20T00:29:00.309Z,13.70
2022-09-20T00:31:28.148Z,13.40
2022-09-20T00:34:16.207Z,13.60
2022-09-20T00:36:44.808Z,13.90
2022-09-20T00:39:14.573Z,13.70
2022-09-20T00:41:43.207Z,13.60
2022-09-20T00:44:43.328Z,13.80
2022-09-20T00:47:43.542Z,13.00
2022-09-20T00:50:35.769Z,12.60
2022-09-20T00:53:06.314Z,12.80
2022-09-20T00:55:37.976Z,12.80
2022-09-20T00:58:07.136Z,13.00
2022-09-20T01:00:35.005Z,13.30
2022-09-20T01:03:07.984Z,13.40
2022-09-20T01:05:37.579Z,14.00
2022-09-20T01:08:06.795Z,13.80
2022-09-20T01:10:35.001Z,13.10
2022-09-20T01:13:03.926Z,13.00
2022-09-20T01:15:34.473Z,13.70
2022-09-20T01:18:03.375Z,13.20
2022-09-20T01:20:35.258Z,13.60
2022-09-20T01:23:14.932Z,12.50
2022-09-20T01:25:57.667Z,13.40
2022-09-20T01:28:27.105Z,13.60
2022-09-20T01:31:30.421Z,13.30
2022-09-20T01:34:08.826Z,12.70
2022-09-20T01:36:44.502Z,12.50
2022-09-20T01:42:02.416Z,14.20
2022-09-20T01:44:32.998Z,12.70
2022-09-20T01:47:23.376Z,13.00
2022-09-20T01:49:53.672Z,13.50
2022-09-20T01:52:33.540Z,12.40
2022-09-20T01:55:19.379Z,12.20
2022-09-20T01:57:56.040Z,13.80
2022-09-20T02:00:31.184Z,12.80
2022-09-20T02:03:23.734Z,12.40
2022-09-20T02:06:23.423Z,12.50
2022-09-20T02:09:03.043Z,12.10
2022-09-20T02:12:13.960Z,11.50
2022-09-20T02:14:58.271Z,11.90
2022-09-20T02:17:45.639Z,12.30
2022-09-20T02:20:31.287Z,12.30
2022-09-20T02:22:58.964Z,12.50
2022-09-20T02:25:46.090Z,13.20
2022-09-20T02:28:16.530Z,13.00
2022-09-20T02:30:52.209Z,13.00
2022-09-20T02:33:41.429Z,12.00
2022-09-20T02:36:28.027Z,12.50
2022-09-20T02:39:12.160Z,12.90
2022-09-20T02:42:03.193Z,12.30
2022-09-20T02:44:57.318Z,11.70
2022-09-20T02:47:33.310Z,12.10
2022-09-20T02:50:08.859Z,11.80
2022-09-20T02:55:28.855Z,10.80
2022-09-20T02:58:37.979Z,11.40
2022-09-20T03:01:20.070Z,12.00
2022-09-20T03:03:57.012Z,13.20
2022-09-20T03:07:03.222Z,13.40
2022-09-20T03:09:52.034Z,12.00
2022-09-20T03:12:27.463Z,12.60
2022-09-20T03:15:18.146Z,12.20
2022-09-20T03:18:08.409Z,11.80
2022-09-20T03:20:54.640Z,11.60
2022-09-20T03:23:22.294Z,12.10
2022-09-20T03:26:24.193Z,12.50
2022-09-20T03:29:27.216Z,11.90
2022-09-20T03:32:19.275Z,12.10
2022-09-20T03:35:24.462Z,11.70
2022-09-20T03:37:55.202Z,11.60
2022-09-20T03:40:57.511Z,12.00
2022-09-20T03:44:05.514Z,12.40
2022-09-20T03:46:49.410Z,11.60
2022-09-20T03:49:48.247Z,11.40
2022-09-20T03:52:25.190Z,10.80
2022-09-20T03:55:16.091Z,10.70
2022-09-20T03:58:21.232Z,12.20
2022-09-20T04:01:00.977Z,10.90
2022-09-20T04:03:58.887Z,10.30
2022-09-20T04:06:45.165Z,11.00
2022-09-20T04:09:34.611Z,11.70
2022-09-20T04:12:07.757Z,11.70
2022-09-20T04:14:53.789Z,12.10
2022-09-20T04:17:38.575Z,12.10
2022-09-20T04:20:32.569Z,12.80
2022-09-20T04:23:16.309Z,13.20
2022-09-20T04:25:48.477Z,14.50
2022-09-20T04:28:28.976Z,14.00
2022-09-20T04:31:21.435Z,12.80
2022-09-20T04:33:52.281Z,14.20
2022-09-20T04:36:29.097Z,14.10
2022-09-20T04:39:08.901Z,14.50
2022-09-20T04:41:42.377Z,14.60
2022-09-20T04:44:46.909Z,14.30
2022-09-20T04:47:59.666Z,14.40
2022-09-20T04:50:39.642Z,14.70
2022-09-20T04:53:25.345Z,14.20
2022-09-20T04:56:00.342Z,13.00
2022-09-20T04:58:55.276Z,13.00
2022-09-20T05:02:08.465Z,13.90
2022-09-20T05:04:54.866Z,13.30
2022-09-20T05:07:50.334Z,13.80
2022-09-20T05:10:26.898Z,14.30
2022-09-20T05:13:16.822Z,14.40
2022-09-20T05:15:52.997Z,14.80
2022-09-20T05:18:39.483Z,15.30
2022-09-20T05:21:31.592Z,15.50
2022-09-20T05:24:10.722Z,15.80
2022-09-20T05:26:52.453Z,16.60
2022-09-20T05:29:51.803Z,16.30
2022-09-20T05:32:44.330Z,17.30
2022-09-20T05:35:36.569Z,15.60
2022-09-20T05:38:19.131Z,16.80
2022-09-20T05:41:25.087Z,16.80
2022-09-20T05:44:21.948Z,16.90
2022-09-20T05:47:16.809Z,17.40
2022-09-20T05:50:22.116Z,15.80
2022-09-20T05:53:04.863Z,17.40
2022-09-20T05:56:04.012Z,17.10
2022-09-20T05:59:17.942Z,19.10
2022-09-20T06:02:10.547Z,17.60
2022-09-20T06:04:51.682Z,17.40
2022-09-20T06:07:47.744Z,17.50
2022-09-20T06:10:47.969Z,19.30
2022-09-20T06:13:41.283Z,19.00
2022-09-20T06:16:18.340Z,20.20
2022-09-20T06:19:17.384Z,18.60
2022-09-20T06:21:45.992Z,19.70
2022-09-20T06:24:43.611Z,18.10
2022-09-20T06:27:19.055Z,20.60
2022-09-20T06:29:57.510Z,19.60
2022-09-20T06:32:25.274Z,19.30
2022-09-20T06:34:54.623Z,20.00
2022-09-20T06:37:43.944Z,20.10
2022-09-20T06:40:51.544Z,19.20
2022-09-20T06:43:19.611Z,19.00
2022-09-20T06:45:48.636Z,21.40
2022-09-20T06:48:16.569Z,21.60
2022-09-20T06:50:45.470Z,20.30
2022-09-20T06:53:18.034Z,23.40
2022-09-20T06:55:47.058Z,21.80
2022-09-20T06:58:15.509Z,21.60
2022-09-20T07:00:43.415Z,21.00
2022-09-20T07:03:13.197Z,20.80
2022-09-20T07:05:41.151Z,21.00
2022-09-20T07:08:09.121Z,20.50
2022-09-20T07:10:36.828Z,21.20
2022-09-20T07:13:05.703Z,21.40
2022-09-20T07:15:35.275Z,21.70
2022-09-20T07:18:03.146Z,20.40
2022-09-20T07:20:30.929Z,20.70
2022-09-20T07:22:59.794Z,20.20
2022-09-20T07:25:27.567Z,19.80
2022-09-20T07:27:55.779Z,18.80
2022-09-20T07:30:24.499Z,20.00
2022-09-20T07:32:55.155Z,18.30
2022-09-20T07:35:23.026Z,18.60
2022-09-20T07:37:57.225Z,17.70
2022-09-20T07:40:26.905Z,17.90
2022-09-20T07:42:57.411Z,16.80
2022-09-20T07:45:25.726Z,17.50
2022-09-20T07:47:54.785Z,16.20
2022-09-20T07:50:22.711Z,15.80
2022-09-20T07:52:50.682Z,16.50
2022-09-20T07:55:18.532Z,16.80
2022-09-20T07:57:46.295Z,15.70
2022-09-20T08:00:14.789Z,15.40
2022-09-20T08:02:42.743Z,14.80
2022-09-20T08:05:10.509Z,14.10
2022-09-20T08:07:39.539Z,15.90
2022-09-20T08:10:08.261Z,16.30
2022-09-20T08:15:26.135Z,17.10
2022-09-20T08:17:53.897Z,17.70
2022-09-20T08:20:21.659Z,17.50
2022-09-20T08:23:06.397Z,15.20
2022-09-20T08:25:38.548Z,17.20
2022-09-20T08:28:06.580Z,15.10
2022-09-20T08:30:34.336Z,15.30
2022-09-20T08:33:04.118Z,17.40
2022-09-20T08:35:32.002Z,15.50
2022-09-20T08:39:57.282Z,16.20
2022-09-20T08:40:49.586Z,17.20
2022-09-20T08:43:22.276Z,16.50
2022-09-20T08:45:50.740Z,15.00
2022-09-20T08:48:28.905Z,14.60
2022-09-20T08:50:56.666Z,14.70
2022-09-20T08:53:24.478Z,14.50
2022-09-20T08:55:52.402Z,13.00
2022-09-20T08:58:20.267Z,14.00
2022-09-20T09:00:48.146Z,14.50
2022-09-20T09:03:18.154Z,14.00
2022-09-20T09:05:46.628Z,13.60
2022-09-20T09:08:18.901Z,13.20
2022-09-20T09:10:54.863Z,13.30
2022-09-20T09:13:22.974Z,15.80
2022-09-20T09:15:59.056Z,17.30
2022-09-20T09:18:34.906Z,15.90
2022-09-20T09:21:05.246Z,16.10
2022-09-20T09:24:01.390Z,15.30
2022-09-20T09:26:36.957Z,13.70
2022-09-20T09:29:17.811Z,12.90
2022-09-20T09:31:49.721Z,14.20
2022-09-20T09:34:25.822Z,12.90
2022-09-20T09:36:57.050Z,12.00
2022-09-20T09:39:45.106Z,13.40
2022-09-20T09:42:29.033Z,12.30
2022-09-20T09:45:26.302Z,11.10
2022-09-20T09:47:56.467Z,12.20
2022-09-20T09:50:26.970Z,11.60
2022-09-20T09:53:22.525Z,11.20
2022-09-20T09:56:07.922Z,11.50
2022-09-20T09:59:05.708Z,11.80
2022-09-20T10:01:55.845Z,9.20
2022-09-20T10:04:41.474Z,7.50
2022-09-20T10:07:34.998Z,7.00
2022-09-20T10:10:35.061Z,11.60
2022-09-20T10:13:21.564Z,11.70
2022-09-20T10:16:01.819Z,11.90
2022-09-20T10:18:43.006Z,9.90
2022-09-20T10:21:26.020Z,11.60
2022-09-20T10:24:22.049Z,11.10
2022-09-20T10:27:33.239Z,10.60
2022-09-20T10:30:12.255Z,10.10
2022-09-20T10:32:49.941Z,9.50
2022-09-20T10:35:26.710Z,9.20
2022-09-20T10:38:06.570Z,9.10
2022-09-20T10:41:02.599Z,9.50
2022-09-20T10:43:54.736Z,8.20
2022-09-20T10:46:38.252Z,9.20
2022-09-20T10:49:25.102Z,7.00
2022-09-20T10:52:15.066Z,6.90
2022-09-20T10:54:42.818Z,6.90
2022-09-20T10:57:33.619Z,8.30
2022-09-20T11:00:22.431Z,7.20
2022-09-20T11:03:28.614Z,6.90
2022-09-20T11:06:06.542Z,6.60
2022-09-20T11:08:38.098Z,6.30
2022-09-20T11:11:17.189Z,6.50
2022-09-20T11:14:04.759Z,7.00
2022-09-20T11:16:47.016Z,5.60
2022-09-20T11:19:21.062Z,5.80
2022-09-20T11:21:58.617Z,5.50
2022-09-20T11:24:44.237Z,5.80
2022-09-20T11:27:21.853Z,5.00
2022-09-20T11:30:02.295Z,4.90
2022-09-20T11:32:36.872Z,6.50
2022-09-20T11:35:10.314Z,6.50
2022-09-20T11:37:50.978Z,5.40
2022-09-20T11:40:40.300Z,5.80
2022-09-20T11:43:15.947Z,4.80
2022-09-20T11:45:51.440Z,6.10
2022-09-20T11:48:29.445Z,5.70
2022-09-20T11:51:09.796Z,5.30
2022-09-20T11:53:40.330Z,5.50
2022-09-20T11:56:20.415Z,4.60
2022-09-20T11:58:58.173Z,4.60
2022-09-20T12:01:32.494Z,4.00
2022-09-20T12:04:33.823Z,3.80
2022-09-20T12:07:11.335Z,4.00
2022-09-20T12:09:44.321Z,4.30
2022-09-20T12:12:25.297Z,3.80
2022-09-20T12:14:59.914Z,4.10
2022-09-20T12:17:46.025Z,3.80
2022-09-20T12:20:32.843Z,3.50
2022-09-20T12:23:41.464Z,3.30
2022-09-20T12:26:21.193Z,4.60
2022-09-20T12:28:58.984Z,3.90
2022-09-20T12:31:29.842Z,3.90
2022-09-20T12:34:02.139Z,4.00
2022-09-20T12:36:35.321Z,3.20
2022-09-20T12:39:13.092Z,3.00
2022-09-20T12:41:56.609Z,3.00
2022-09-20T12:44:49.152Z,3.50
2022-09-20T12:47:24.914Z,3.10
2022-09-20T12:50:15.088Z,2.60
2022-09-20T12:52:57.908Z,2.90
2022-09-20T12:55:46.414Z,3.20
2022-09-20T12:58:17.086Z,3.00
2022-09-20T13:01:14.517Z,3.00
2022-09-20T13:03:44.048Z,3.10
2022-09-20T13:06:15.813Z,2.80
2022-09-20T13:08:48.444Z,2.60
2022-09-20T13:11:21.185Z,2.40
2022-09-20T13:13:52.029Z,2.50
2022-09-20T13:16:46.401Z,2.30
2022-09-20T13:19:21.632Z,2.80
2022-09-20T13:22:00.758Z,2.30
2022-09-20T13:24:33.043Z,2.80
2022-09-20T13:27:07.044Z,2.50
2022-09-20T13:29:40.207Z,2.80
2022-09-20T13:32:30.414Z,2.90
2022-09-20T13:35:10.265Z,2.40
2022-09-20T13:37:49.457Z,2.50
2022-09-20T13:40:41.375Z,3.00
2022-09-20T13:43:31.819Z,2.30
2022-09-20T13:46:12.581Z,2.40
2022-09-20T13:48:48.261Z,2.60
2022-09-20T13:51:20.691Z,2.80
2022-09-20T13:53:50.873Z,3.00
2022-09-20T13:56:29.775Z,3.10
2022-09-20T13:59:26.546Z,2.60
2022-09-20T14:01:58.639Z,2.90
2022-09-20T14:04:33.113Z,2.10
2022-09-20T14:07:08.424Z,2.40
2022-09-20T14:09:39.580Z,2.70
2022-09-20T14:12:08.712Z,2.40
2022-09-20T14:14:37.077Z,2.60
2022-09-20T14:17:09.039Z,2.30
2022-09-20T14:19:41.648Z,1.90
2022-09-20T14:22:19.901Z,2.10
2022-09-20T14:25:25.637Z,2.00
2022-09-20T14:28:28.894Z,1.80
2022-09-20T14:31:07.436Z,2.70
2022-09-20T14:33:42.685Z,2.60
2022-09-20T14:36:16.284Z,2.30
2022-09-20T14:38:46.399Z,1.90
2022-09-20T14:41:24.224Z,1.70
2022-09-20T14:43:58.674Z,2.00
2022-09-20T14:46:38.978Z,1.90
2022-09-20T14:49:20.744Z,1.90
2022-09-20T14:51:49.064Z,2.30
2022-09-20T14:54:37.120Z,2.40
2022-09-20T14:57:05.975Z,5.00
2022-09-20T14:59:41.826Z,4.80
2022-09-20T15:02:15.634Z,5.40
2022-09-20T15:04:54.609Z,6.00
2022-09-20T15:07:22.528Z,6.10
2022-09-20T15:09:50.596Z,5.70
2022-09-20T15:12:20.515Z,14.00
2022-09-20T15:14:49.077Z,14.90
2022-09-20T15:17:19.934Z,8.20
2022-09-20T15:19:49.133Z,5.70
2022-09-20T15:22:16.910Z,5.40
2022-09-20T15:24:44.684Z,4.90
2022-09-20T15:27:12.932Z,5.10
2022-09-20T15:29:40.747Z,4.80
2022-09-20T15:32:11.215Z,5.70
2022-09-20T15:34:39.082Z,6.80
2022-09-20T15:37:06.846Z,7.10
2022-09-20T15:39:34.671Z,8.60
2022-09-20T15:42:04.110Z,8.90
2022-09-20T15:44:32.905Z,8.40
2022-09-20T15:47:01.791Z,6.30
2022-09-20T15:49:31.200Z,6.50
2022-09-20T15:51:59.052Z,7.40
2022-09-20T15:54:26.918Z,11.30
2022-09-20T15:56:54.785Z,11.10
2022-09-20T15:59:23.516Z,16.20
2022-09-20T16:01:51.932Z,13.20
2022-09-20T16:04:20.636Z,19.20
2022-09-20T16:06:50.183Z,19.30
2022-09-20T16:09:18.952Z,27.10
2022-09-20T16:11:48.345Z,20.60
2022-09-20T16:14:16.255Z,20.60
2022-09-20T16:16:44.104Z,21.40
2022-09-20T16:19:18.386Z,21.30
2022-09-20T16:22:12.761Z,18.00
2022-09-20T16:24:40.525Z,16.00
2022-09-20T16:27:08.799Z,16.30
2022-09-20T16:29:36.769Z,11.60
2022-09-20T16:32:05.618Z,17.30
2022-09-20T16:34:35.779Z,38.00
2022-09-20T16:37:11.798Z,38.00
2022-09-20T16:39:40.618Z,33.00
2022-09-20T16:42:12.477Z,18.60
2022-09-20T16:44:42.820Z,10.80
2022-09-20T16:47:16.604Z,7.80
2022-09-20T16:49:44.677Z,7.70
2022-09-20T16:52:12.540Z,16.00
2022-09-20T16:54:40.816Z,12.70
2022-09-20T16:57:09.720Z,10.70
2022-09-20T16:59:37.467Z,10.50
2022-09-20T17:02:05.332Z,11.80
2022-09-20T17:04:33.234Z,11.70
2022-09-20T17:07:01.931Z,12.00
2022-09-20T17:09:29.955Z,10.40
2022-09-20T17:11:57.721Z,10.90
2022-09-20T17:14:25.831Z,16.40
2022-09-20T17:16:53.760Z,15.80
2022-09-20T17:19:21.633Z,15.60
2022-09-20T17:21:51.179Z,14.30
2022-09-20T17:24:20.861Z,10.60
2022-09-20T17:26:50.454Z,16.30
2022-09-20T17:29:19.853Z,17.30
2022-09-20T17:31:54.904Z,17.60
2022-09-20T17:34:25.064Z,12.40
2022-09-20T17:36:55.113Z,12.90
2022-09-20T17:39:23.596Z,11.70
2022-09-20T17:41:51.955Z,12.00
2022-09-20T17:44:19.876Z,16.70
2022-09-20T17:46:54.246Z,39.40
2022-09-20T17:49:23.668Z,30.60
2022-09-20T17:51:54.438Z,25.50
2022-09-20T17:54:24.662Z,28.20
2022-09-20T17:56:56.230Z,30.50
2022-09-20T17:59:24.818Z,27.20
2022-09-20T18:01:54.520Z,24.50
2022-09-20T18:04:24.792Z,20.20
2022-09-20T18:06:54.222Z,21.50
2022-09-20T18:09:25.392Z,20.50
2022-09-20T18:11:54.931Z,17.70
2022-09-20T18:14:28.075Z,17.90
2022-09-20T18:17:00.970Z,16.00
2022-09-20T18:19:33.556Z,19.10
2022-09-20T18:22:02.527Z,19.40
2022-09-20T18:24:31.205Z,17.90
2022-09-20T18:27:00.832Z,17.20
2022-09-20T18:29:29.446Z,17.30
2022-09-20T18:31:59.852Z,15.30
2022-09-20T18:34:32.079Z,14.80
2022-09-20T18:37:01.382Z,15.10
2022-09-20T18:39:33.525Z,15.40
2022-09-20T18:42:02.246Z,16.80
2022-09-20T18:44:34.886Z,16.10
2022-09-20T18:47:05.053Z,16.10
2022-09-20T18:49:33.529Z,17.80
2022-09-20T18:52:02.111Z,16.50
2022-09-20T18:54:33.575Z,17.10
2022-09-20T18:57:01.776Z,17.40
2022-09-20T18:59:29.781Z,18.80
2022-09-20T19:02:17.545Z,14.80
2022-09-20T19:05:01.865Z,18.80
2022-09-20T19:07:44.902Z,19.00
2022-09-20T19:10:21.593Z,21.00
2022-09-20T19:13:00.034Z,20.50
2022-09-20T19:15:52.916Z,19.00
2022-09-20T19:18:59.085Z,20.50
2022-09-20T19:21:51.923Z,20.30
2022-09-20T19:25:14.049Z,19.90
2022-09-20T19:27:42.152Z,18.20
2022-09-20T19:30:14.351Z,18.00
2022-09-20T19:32:43.893Z,16.60
2022-09-20T19:35:29.977Z,17.50
2022-09-20T19:38:15.643Z,16.50
2022-09-20T19:41:02.416Z,16.30
2022-09-20T19:43:44.692Z,16.20
2022-09-20T19:46:27.042Z,16.70
2022-09-20T19:49:13.097Z,16.30
2022-09-20T19:54:12.475Z,16.20
2022-09-20T19:56:55.844Z,17.10
2022-09-20T19:59:26.613Z,16.00
2022-09-20T20:01:56.528Z,16.40
2022-09-20T20:04:24.709Z,15.70
2022-09-20T20:07:01.664Z,14.60
2022-09-20T20:09:55.942Z,14.60
2022-09-20T20:12:34.378Z,14.10
2022-09-20T20:15:11.827Z,15.10
2022-09-20T20:18:06.850Z,14.90
2022-09-20T20:20:44.224Z,16.00
2022-09-20T20:23:53.800Z,14.90
2022-09-20T20:26:23.954Z,15.60
2022-09-20T20:28:53.059Z,14.10
2022-09-20T20:31:21.228Z,16.00
2022-09-20T20:33:49.599Z,16.20
2022-09-20T20:36:17.800Z,15.20
2022-09-20T20:38:50.044Z,15.00
2022-09-20T20:41:20.527Z,14.00
2022-09-20T20:43:51.922Z,13.80
2022-09-20T20:46:19.760Z,13.50
2022-09-20T20:48:47.969Z,14.80
2022-09-20T20:51:18.030Z,14.50
2022-09-20T20:53:49.017Z,14.00
2022-09-20T20:56:18.385Z,12.90
2022-09-20T20:58:47.710Z,12.20
2022-09-20T21:01:24.418Z,13.10
2022-09-20T21:03:54.443Z,11.90
2022-09-20T21:06:27.929Z,11.30
2022-09-20T21:08:55.716Z,11.20
2022-09-20T21:11:26.344Z,11.00
2022-09-20T21:13:59.892Z,10.50
2022-09-20T21:16:30.670Z,10.70
2022-09-20T21:18:58.870Z,9.50
2022-09-20T21:21:32.488Z,9.70
2022-09-20T21:24:05.719Z,9.50
2022-09-20T21:26:35.494Z,8.90
2022-09-20T21:29:06.034Z,8.90
2022-09-20T21:31:36.270Z,8.60
2022-09-20T21:34:06.871Z,9.30
2022-09-20T21:36:35.949Z,8.80
2022-09-20T21:39:04.546Z,9.40
2022-09-20T21:41:35.302Z,8.90
2022-09-20T21:44:05.016Z,9.00
2022-09-20T21:46:42.543Z,9.80
2022-09-20T21:49:12.460Z,9.30
2022-09-20T21:51:42.838Z,8.20
2022-09-20T21:54:11.572Z,8.60
2022-09-20T21:56:41.343Z,8.30
2022-09-20T21:59:09.580Z,7.80
2022-09-20T22:01:40.516Z,8.30
2022-09-20T22:04:11.248Z,8.00
2022-09-20T22:06:41.364Z,8.20
2022-09-20T22:09:14.838Z,7.80
2022-09-20T22:11:45.328Z,7.20
2022-09-20T22:14:14.980Z,7.50
2022-09-20T22:16:44.815Z,7.50
2022-09-20T22:19:15.184Z,6.80
2022-09-20T22:21:45.725Z,6.90
2022-09-20T22:24:15.154Z,7.50
2022-09-20T22:26:45.868Z,7.20
2022-09-20T22:29:14.553Z,7.00
2022-09-20T22:31:47.346Z,6.60
2022-09-20T22:34:20.423Z,6.80
2022-09-20T22:36:49.137Z,7.10
2022-09-20T22:39:17.302Z,7.00
2022-09-20T22:41:47.887Z,6.90
2022-09-20T22:44:16.059Z,7.20
2022-09-20T22:46:43.831Z,7.10
2022-09-20T22:49:11.630Z,7.20
2022-09-20T22:51:39.420Z,7.30
2022-09-20T22:54:10.187Z,7.40
2022-09-20T22:56:41.421Z,7.60
2022-09-20T22:59:14.605Z,7.60
2022-09-20T23:01:45.604Z,7.30
2022-09-20T23:04:16.973Z,7.70
2022-09-20T23:06:48.003Z,7.80
2022-09-20T23:09:18.199Z,7.40
2022-09-20T23:11:46.603Z,7.00
2022-09-20T23:14:19.970Z,7.40
2022-09-20T23:16:48.480Z,7.30
2022-09-20T23:19:17.545Z,6.90
2022-09-20T23:21:45.843Z,6.90
2022-09-20T23:24:15.454Z,7.40
2022-09-20T23:26:44.621Z,7.00
2022-09-20T23:29:15.411Z,7.10
2022-09-20T23:31:46.511Z,7.50
2022-09-20T23:34:16.763Z,6.90
2022-09-20T23:36:45.588Z,7.40
2022-09-20T23:39:13.847Z,6.70
2022-09-20T23:41:43.926Z,7.50
2022-09-20T23:44:13.933Z,7.50
2022-09-20T23:46:41.740Z,7.50
2022-09-20T23:49:09.544Z,7.40
2022-09-20T23:51:37.829Z,7.10
2022-09-20T23:54:06.057Z,7.80
2022-09-20T23:56:33.912Z,7.50
2022-09-20T23:59:01.733Z,7.80
